Information Last Ob Photographs Calibration Meteogram Network Table Neighbors Monthly Summaries Observation History Wind Roses Custom Wind Roses Data Calendar Satellite Cloud Product Download Terminal Aerodome Forecast

Satellite Cloud Product

NESDIS produces a Satellite Cloud Product (SCP) that supplements the ASOS ceilometer readings. This page merges the SCP data with the METAR observations for a given UTC date. Cloud level values are presented in feet above ground level. ECA represents estimated cloud amount expressed in percentage. An IEM Web Service provided the following JSON dataset for this page. Data is available for some sites back to 1993.

Year: Month: Day: Time Order:

 

SCP Valid UTCSatellite East SounderSatellite West SounderASOS METAR Report
Mid CloudsHigh CloudsLevels [ft]ECA [%]Mid CloudsHigh CloudsLevels [ft]ECA [%]Levels ftMETAR
0050ZCLR-0CLR-0CLR KMCW 250053Z AUTO 18011KT 10SM CLR 02/M04 A2978 RMK AO2 SLP097 T00221039
0150ZCLR-0CLR-0CLR KMCW 250153Z AUTO 18011KT 10SM CLR 02/M04 A2977 RMK AO2 SLP093 T00171039
0250ZCLR-0CLR-0CLR KMCW 250253Z AUTO 18011KT 10SM CLR 01/M04 A2976 RMK AO2 SLP088 T00061044 58008
0350ZCLR-0CLR-0CLR KMCW 250353Z AUTO 18009KT 10SM CLR 00/M04 A2975 RMK AO2 SLP082 T00001044
0450ZCLR-0CLR-0CLR KMCW 250453Z AUTO 20012KT 10SM CLR 03/M03 A2973 RMK AO2 SLP072 T00281033
0550ZSCT24000 - 300000SCT19000 - 290000CLR KMCW 250553Z AUTO 21015KT 10SM CLR 02/M03 A2971 RMK AO2 SLP064 T00221033 10056 20000 400891122 58017
0650ZSCT13000 - 2900011SCT13000 - 2700014CLR KMCW 250653Z AUTO 22015KT 10SM CLR 02/M03 A2969 RMK AO2 SLP059 T00221033
0750ZSCT13000 - 290006SCT13000 - 210003FEW@11000
KMCW 250753Z AUTO 22011KT 10SM FEW110 03/M03 A2968 RMK AO2 SLP055 T00281033
0850ZSCT13000 - 290002SCT13000 - 270004CLR KMCW 250853Z AUTO 24012KT 10SM CLR 03/M03 A2968 RMK AO2 SLP053 T00281033 56009
0950ZCLR-0CLR-0CLR KMCW 250953Z AUTO 25010KT 10SM CLR 02/M04 A2968 RMK AO2 SLP054 T00221039
1050ZSCT13000 - 280003SCT13000 - 250003CLR KMCW 251053Z AUTO 24010KT 10SM CLR 02/M04 A2969 RMK AO2 SLP055 T00171039